Ana Sayfa
METAR-TAF:

METAR-TAF

Havaalanları :

Caracas, Venezuela

Enlem: 10-36N, Boylam: 066-59W, yükseklik: 43 m

Güncel hava durumu gözlemi

Rapor saat 14:00 UTC de 36 dakika önce yapıldı.
Rüzgar doğu/kuzeydoğudan 5 kt
Sıcaklık 28°C
Nem 79%
Basınç 1013 hPa
Görüş mesafesi 10 km veya daha fazla
1600 ft yükseklikte az bulutlu

METAR: SVMI 151400Z 07005KT 9999 FEW016 28/24 Q1013

Saat: 10:36 (14:36 UTC)

Tahmin

Rapor saat 10:00 UTC de 4 saat ve 36 dakika önce yapıldı.
Ayın 15'si saat 12 UTC'den ayın 16'si saat 12 UTC'ye kadar geçerli Tahmin
Rüzgar güneybatıdan 3 kt
Görüş mesafesi 10 km veya daha fazla
1600 ft yükseklikte parçalı bulutlu
Dönüşüyor
ayın 15'si saat 12 UTC'den ayın 15'si saat 16 UTC'ye kadar
Rüzgar batıdan 2 kt
Görüş mesafesi 10 km veya daha fazla
1600 ft yükseklikte parçalı bulutlu

TAF: SVMI 151000Z 1512/1612 22003KT 9999 SCT016 TX32/18Z TN26/06Z BECMG 1512/1516 28002KT 9999 SCT016

4.000'den fazla havaalanı için hava durumu gözlemleri ve tahminleri (METAR ve TAF raporları).

Kullanılabilir istasyonlar harita üzerinde sarı ve kırmızı noktalarla gösterilir.

İstasyonun adını görmek için fareyi noktanın üzerinde gezdirin.

Sonrasında hava gözlem ve tahminlerini görmek için tıklayın.

Haritayı değiştirmek için: yaklaştırmak için siyah artı işaretli yeşil düğmeye ve uzaklaştırmak için de eksi işaretli düğmeye hızla tıklayın; bitişik haritalar için yeşil okları kullanın.


METAR-TAF: